TSC361 MMUN-CYYC
Flight info
| Callsign | TSC361 |
|---|---|
| Flight time | 6h 5m |
| Altitude | 32000 |
| Route | NOSUG2A NOSUG UT27 OMVIP UT45 ALKIM DCT KEHLI A766 SBI DCT MMB/N0461F340 DCT RYLIE DCT SAYGE DCT CYS J13 BIL DCT MOBEK EBGAL7 |
| Aircraft | A321/M-SDE3FGHIRWY/LB1 |
Departure
| Time | 2026-04-28 19:11 |
|---|---|
| Airport | Cancún International Airport (MMUN) |
Arrival
| Time | 2026-04-29 01:17 |
|---|---|
| Airport | Calgary International Airport (CYYC) |
| Time | Latitude | Longitude | Altitude | Speed | Heading |
|---|---|---|---|---|---|
| 2026-04-28 18:39 | 21.03599 | -86.87000 | -63 ft | 0 kts | 34° |
| 2026-04-28 19:03 | 21.03595 | -86.87003 | 46 ft | 3 kts | 34° |
| 2026-04-28 19:03 | 21.03572 | -86.87019 | 23 ft | 4 kts | 31° |
| 2026-04-28 19:04 | 21.03548 | -86.87030 | 29 ft | 4 kts | 7° |
| 2026-04-28 19:04 | 21.03524 | -86.87029 | 29 ft | 4 kts | 330° |
| 2026-04-28 19:04 | 21.03511 | -86.87017 | 29 ft | 1 kts | 304° |
| 2026-04-28 19:04 | 21.03509 | -86.87015 | 29 ft | 0 kts | 304° |
| 2026-04-28 19:06 | 21.03539 | -86.87063 | 29 ft | 14 kts | 304° |
| 2026-04-28 19:06 | 21.03613 | -86.87183 | 29 ft | 22 kts | 302° |
| 2026-04-28 19:07 | 21.03696 | -86.87313 | 30 ft | 20 kts | 304° |
| 2026-04-28 19:07 | 21.03773 | -86.87438 | 30 ft | 21 kts | 304° |
| 2026-04-28 19:07 | 21.03822 | -86.87576 | 30 ft | 19 kts | 261° |
| 2026-04-28 19:07 | 21.03851 | -86.87698 | 31 ft | 18 kts | 301° |
| 2026-04-28 19:08 | 21.03934 | -86.87830 | 30 ft | 25 kts | 304° |
| 2026-04-28 19:08 | 21.04032 | -86.87980 | 30 ft | 24 kts | 307° |
| 2026-04-28 19:08 | 21.04122 | -86.88123 | 30 ft | 23 kts | 302° |
| 2026-04-28 19:08 | 21.04222 | -86.88288 | 30 ft | 28 kts | 303° |
| 2026-04-28 19:09 | 21.04325 | -86.88455 | 30 ft | 26 kts | 303° |
| 2026-04-28 19:09 | 21.04420 | -86.88601 | 31 ft | 23 kts | 298° |
| 2026-04-28 19:09 | 21.04502 | -86.88733 | 30 ft | 21 kts | 303° |
| 2026-04-28 19:09 | 21.04581 | -86.88861 | 30 ft | 20 kts | 304° |
| 2026-04-28 19:10 | 21.04638 | -86.88993 | 30 ft | 21 kts | 258° |
| 2026-04-28 19:10 | 21.04547 | -86.89068 | 32 ft | 16 kts | 199° |
| 2026-04-28 19:10 | 21.04462 | -86.88990 | 32 ft | 19 kts | 123° |
| 2026-04-28 19:10 | 21.04289 | -86.88710 | 35 ft | 82 kts | 123° |
| 2026-04-28 19:11 | 21.03846 | -86.87999 | 34 ft | 145 kts | 124° |
| 2026-04-28 19:11 | 21.03210 | -86.86986 | 306 ft | 172 kts | 124° |
| 2026-04-28 19:11 | 21.02510 | -86.85906 | 945 ft | 182 kts | 123° |
| 2026-04-28 19:11 | 21.01892 | -86.84660 | 1154 ft | 198 kts | 102° |
| 2026-04-28 19:12 | 21.02028 | -86.83161 | 1292 ft | 217 kts | 67° |
| 2026-04-28 19:12 | 21.03109 | -86.81940 | 1488 ft | 237 kts | 34° |
| 2026-04-28 19:12 | 21.04586 | -86.81007 | 1792 ft | 254 kts | 33° |
| 2026-04-28 19:12 | 21.06139 | -86.80053 | 2366 ft | 260 kts | 32° |
| 2026-04-28 19:13 | 21.07718 | -86.79088 | 3005 ft | 263 kts | 32° |
| 2026-04-28 19:13 | 21.09406 | -86.78328 | 3689 ft | 268 kts | 14° |
| 2026-04-28 19:13 | 21.11297 | -86.78292 | 4308 ft | 276 kts | 352° |
| 2026-04-28 19:13 | 21.13189 | -86.78693 | 4932 ft | 279 kts | 351° |
| 2026-04-28 19:14 | 21.15101 | -86.79098 | 5538 ft | 282 kts | 351° |
| 2026-04-28 19:14 | 21.17032 | -86.79501 | 6172 ft | 283 kts | 350° |
| 2026-04-28 19:14 | 21.18974 | -86.79904 | 6774 ft | 285 kts | 350° |
| 2026-04-28 19:14 | 21.20895 | -86.80293 | 7344 ft | 285 kts | 351° |
| 2026-04-28 19:15 | 21.22856 | -86.80673 | 7916 ft | 287 kts | 352° |
| 2026-04-28 19:15 | 21.24187 | -86.80928 | 8289 ft | 288 kts | 352° |
| 2026-04-28 19:15 | 21.26806 | -86.81427 | 9072 ft | 289 kts | 352° |
| 2026-04-28 19:15 | 21.27471 | -86.81554 | 9264 ft | 290 kts | 352° |
| 2026-04-28 19:16 | 21.30791 | -86.82192 | 10145 ft | 294 kts | 352° |
| 2026-04-28 19:16 | 21.32864 | -86.82589 | 10258 ft | 311 kts | 352° |
| 2026-04-28 19:16 | 21.34328 | -86.82869 | 10337 ft | 321 kts | 352° |
| 2026-04-28 19:16 | 21.36580 | -86.83303 | 10458 ft | 337 kts | 352° |
| 2026-04-28 19:17 | 21.38931 | -86.83758 | 10572 ft | 351 kts | 352° |
| 2026-04-28 19:17 | 21.41378 | -86.84234 | 10802 ft | 361 kts | 352° |
| 2026-04-28 19:17 | 21.43856 | -86.84720 | 11218 ft | 364 kts | 351° |
| 2026-04-28 19:17 | 21.46354 | -86.85212 | 11684 ft | 366 kts | 351° |
| 2026-04-28 19:18 | 21.48868 | -86.85709 | 12164 ft | 367 kts | 351° |
| 2026-04-28 19:18 | 21.51354 | -86.86199 | 12636 ft | 369 kts | 351° |
| 2026-04-28 19:18 | 21.53913 | -86.86701 | 13115 ft | 370 kts | 351° |
| 2026-04-28 19:18 | 21.56456 | -86.87196 | 13583 ft | 372 kts | 351° |
| 2026-04-28 19:19 | 21.59005 | -86.87687 | 14010 ft | 373 kts | 351° |
| 2026-04-28 19:19 | 21.61567 | -86.88180 | 14413 ft | 375 kts | 351° |
| 2026-04-28 19:19 | 21.64137 | -86.88678 | 14811 ft | 376 kts | 351° |
| 2026-04-28 19:19 | 21.66682 | -86.89175 | 15204 ft | 377 kts | 351° |
| 2026-04-28 19:20 | 21.69271 | -86.89683 | 15597 ft | 379 kts | 351° |
| 2026-04-28 19:20 | 21.71870 | -86.90193 | 15987 ft | 380 kts | 351° |
| 2026-04-28 19:20 | 21.74475 | -86.90705 | 16393 ft | 381 kts | 351° |
| 2026-04-28 19:20 | 21.77091 | -86.91217 | 16785 ft | 383 kts | 351° |
| 2026-04-28 19:21 | 21.79716 | -86.91730 | 17163 ft | 384 kts | 351° |
| 2026-04-28 19:21 | 21.82355 | -86.92246 | 17542 ft | 386 kts | 351° |
| 2026-04-28 19:21 | 21.85005 | -86.92766 | 17924 ft | 388 kts | 352° |
| 2026-04-28 19:21 | 21.87681 | -86.93099 | 18288 ft | 388 kts | 357° |
| 2026-04-28 19:22 | 21.90376 | -86.93332 | 18621 ft | 390 kts | 357° |
| 2026-04-28 19:22 | 21.92206 | -86.93487 | 18845 ft | 391 kts | 357° |
| 2026-04-28 19:22 | 21.95804 | -86.93792 | 19294 ft | 392 kts | 357° |
| 2026-04-28 19:22 | 21.98531 | -86.94021 | 19612 ft | 394 kts | 356° |
| 2026-04-28 19:23 | 22.01266 | -86.94251 | 19953 ft | 395 kts | 356° |
| 2026-04-28 19:23 | 22.04005 | -86.94482 | 20285 ft | 396 kts | 356° |
| 2026-04-28 19:23 | 22.06759 | -86.94715 | 20594 ft | 398 kts | 356° |
| 2026-04-28 19:23 | 22.09523 | -86.94952 | 20913 ft | 399 kts | 356° |
| 2026-04-28 19:24 | 22.12294 | -86.95191 | 21238 ft | 400 kts | 356° |
| 2026-04-28 19:24 | 22.15079 | -86.95435 | 21562 ft | 402 kts | 356° |
| 2026-04-28 19:24 | 22.17868 | -86.95676 | 21871 ft | 403 kts | 356° |
| 2026-04-28 19:24 | 22.20676 | -86.95916 | 22190 ft | 405 kts | 356° |
| 2026-04-28 19:25 | 22.23492 | -86.96153 | 22501 ft | 407 kts | 356° |
| 2026-04-28 19:25 | 22.26316 | -86.96392 | 22810 ft | 408 kts | 356° |
| 2026-04-28 19:25 | 22.29154 | -86.96634 | 23111 ft | 410 kts | 356° |
| 2026-04-28 19:25 | 22.31998 | -86.96879 | 23417 ft | 411 kts | 355° |
| 2026-04-28 19:26 | 22.34859 | -86.97129 | 23697 ft | 413 kts | 355° |
| 2026-04-28 19:26 | 22.37728 | -86.97381 | 23938 ft | 414 kts | 355° |
| 2026-04-28 19:26 | 22.40600 | -86.97628 | 24186 ft | 415 kts | 355° |
| 2026-04-28 19:26 | 22.43488 | -86.97874 | 24430 ft | 417 kts | 355° |
| 2026-04-28 19:27 | 22.46381 | -86.98118 | 24678 ft | 418 kts | 355° |
| 2026-04-28 19:27 | 22.49285 | -86.98365 | 24926 ft | 419 kts | 355° |
| 2026-04-28 19:27 | 22.52202 | -86.98613 | 25189 ft | 420 kts | 355° |
| 2026-04-28 19:27 | 22.55120 | -86.98868 | 25434 ft | 422 kts | 355° |
| 2026-04-28 19:28 | 22.58052 | -86.99123 | 25680 ft | 423 kts | 355° |
| 2026-04-28 19:28 | 22.60992 | -86.99377 | 25925 ft | 425 kts | 355° |
| 2026-04-28 19:28 | 22.63942 | -86.99634 | 26171 ft | 426 kts | 355° |
| 2026-04-28 19:28 | 22.66905 | -86.99892 | 26388 ft | 427 kts | 355° |
| 2026-04-28 19:29 | 22.69870 | -87.00147 | 26631 ft | 429 kts | 355° |
| 2026-04-28 19:29 | 22.71838 | -87.00315 | 26786 ft | 429 kts | 355° |
| 2026-04-28 19:29 | 22.75831 | -87.00657 | 27093 ft | 431 kts | 355° |
| 2026-04-28 19:29 | 22.78827 | -87.00914 | 27320 ft | 432 kts | 355° |
| 2026-04-28 19:30 | 22.81829 | -87.01173 | 27551 ft | 434 kts | 355° |
| 2026-04-28 19:30 | 22.84839 | -87.01432 | 27773 ft | 435 kts | 355° |
| 2026-04-28 19:30 | 22.87823 | -87.01692 | 28027 ft | 436 kts | 355° |
| 2026-04-28 19:30 | 22.90841 | -87.01955 | 28345 ft | 435 kts | 355° |
| 2026-04-28 19:31 | 22.93853 | -87.02216 | 28672 ft | 434 kts | 355° |
| 2026-04-28 19:31 | 22.96858 | -87.02476 | 28989 ft | 433 kts | 355° |
| 2026-04-28 19:31 | 22.99856 | -87.02735 | 29311 ft | 432 kts | 355° |
| 2026-04-28 19:31 | 23.02835 | -87.03069 | 29623 ft | 430 kts | 349° |
| 2026-04-28 19:32 | 23.05719 | -87.03902 | 29929 ft | 429 kts | 340° |
| 2026-04-28 19:32 | 23.08416 | -87.05283 | 30203 ft | 430 kts | 330° |
| 2026-04-28 19:32 | 23.10878 | -87.07131 | 30443 ft | 431 kts | 325° |
| 2026-04-28 19:32 | 23.13275 | -87.09075 | 30686 ft | 430 kts | 325° |
| 2026-04-28 19:33 | 23.15676 | -87.11017 | 30930 ft | 429 kts | 325° |
| 2026-04-28 19:33 | 23.18073 | -87.12945 | 31179 ft | 428 kts | 326° |
| 2026-04-28 19:33 | 23.20467 | -87.14863 | 31434 ft | 427 kts | 326° |
| 2026-04-28 19:33 | 23.22855 | -87.16780 | 31687 ft | 426 kts | 326° |
| 2026-04-28 19:34 | 23.25239 | -87.18699 | 31885 ft | 426 kts | 326° |
| 2026-04-28 19:34 | 23.27614 | -87.20612 | 31952 ft | 424 kts | 326° |
| 2026-04-28 19:34 | 23.32331 | -87.24416 | 31954 ft | 421 kts | 326° |
| 2026-04-28 19:35 | 23.37039 | -87.28219 | 31963 ft | 421 kts | 326° |
| 2026-04-28 19:35 | 23.41734 | -87.32020 | 31959 ft | 421 kts | 325° |
| 2026-04-28 19:36 | 23.46429 | -87.35824 | 31965 ft | 420 kts | 326° |
| 2026-04-28 19:36 | 23.51132 | -87.39636 | 32067 ft | 422 kts | 326° |
| 2026-04-28 19:37 | 23.55045 | -87.42812 | 32086 ft | 422 kts | 325° |
| 2026-04-28 19:37 | 23.60538 | -87.47265 | 32079 ft | 420 kts | 325° |
| 2026-04-28 19:38 | 23.65222 | -87.51070 | 32074 ft | 420 kts | 325° |
| 2026-04-28 19:38 | 23.69883 | -87.54920 | 32072 ft | 421 kts | 321° |
| 2026-04-28 19:39 | 23.73538 | -87.59877 | 32064 ft | 429 kts | 301° |
| 2026-04-28 19:39 | 23.75780 | -87.65959 | 32056 ft | 433 kts | 295° |
| 2026-04-28 19:40 | 23.77884 | -87.72115 | 32054 ft | 433 kts | 295° |
| 2026-04-28 19:40 | 23.79997 | -87.78276 | 32051 ft | 433 kts | 295° |
| 2026-04-28 19:41 | 23.82110 | -87.84443 | 32053 ft | 433 kts | 295° |
| 2026-04-28 19:41 | 23.84219 | -87.90614 | 32051 ft | 434 kts | 295° |
| 2026-04-28 19:42 | 23.86319 | -87.96792 | 32050 ft | 434 kts | 295° |
| 2026-04-28 19:42 | 23.88075 | -88.01966 | 32059 ft | 434 kts | 295° |
| 2026-04-28 19:43 | 23.90511 | -88.09157 | 32055 ft | 434 kts | 295° |
| 2026-04-28 19:43 | 23.92614 | -88.15350 | 32060 ft | 435 kts | 295° |
| 2026-04-28 19:44 | 23.94722 | -88.21551 | 32058 ft | 435 kts | 295° |
| 2026-04-28 19:44 | 23.96818 | -88.27753 | 32056 ft | 435 kts | 295° |
| 2026-04-28 19:45 | 23.98906 | -88.33953 | 32056 ft | 435 kts | 294° |
| 2026-04-28 19:45 | 24.00997 | -88.40159 | 32058 ft | 434 kts | 295° |
| 2026-04-28 19:46 | 24.03088 | -88.46359 | 32059 ft | 435 kts | 295° |
| 2026-04-28 19:46 | 24.05171 | -88.52566 | 32053 ft | 435 kts | 295° |
| 2026-04-28 19:47 | 24.07257 | -88.58771 | 32056 ft | 434 kts | 295° |
| 2026-04-28 19:47 | 24.09342 | -88.64976 | 32061 ft | 434 kts | 295° |
| 2026-04-28 19:48 | 24.11423 | -88.71182 | 32061 ft | 434 kts | 295° |
| 2026-04-28 19:48 | 24.13494 | -88.77390 | 32064 ft | 434 kts | 295° |
| 2026-04-28 19:49 | 24.15549 | -88.83558 | 32067 ft | 434 kts | 295° |
| 2026-04-28 19:49 | 24.17623 | -88.89809 | 32069 ft | 434 kts | 294° |
| 2026-04-28 19:50 | 24.20694 | -88.99076 | 32072 ft | 433 kts | 294° |
| 2026-04-28 19:51 | 24.22761 | -89.05281 | 32072 ft | 433 kts | 294° |
| 2026-04-28 19:51 | 24.24810 | -89.11480 | 32070 ft | 433 kts | 294° |
| 2026-04-28 19:52 | 24.26865 | -89.17679 | 32069 ft | 432 kts | 294° |
| 2026-04-28 19:52 | 24.28914 | -89.23868 | 32068 ft | 432 kts | 294° |
| 2026-04-28 19:53 | 24.30953 | -89.30060 | 32067 ft | 432 kts | 294° |
| 2026-04-28 19:53 | 24.32986 | -89.36252 | 32066 ft | 431 kts | 294° |
| 2026-04-28 19:54 | 24.35022 | -89.42437 | 32063 ft | 431 kts | 294° |
| 2026-04-28 19:54 | 24.37053 | -89.48614 | 32061 ft | 431 kts | 294° |
| 2026-04-28 19:55 | 24.39083 | -89.54798 | 32055 ft | 431 kts | 294° |
| 2026-04-28 19:55 | 24.41091 | -89.60934 | 32056 ft | 430 kts | 294° |
| 2026-04-28 19:56 | 24.43106 | -89.67109 | 32056 ft | 430 kts | 294° |
| 2026-04-28 19:56 | 24.45117 | -89.73282 | 32056 ft | 429 kts | 294° |
| 2026-04-28 19:57 | 24.47149 | -89.79447 | 32053 ft | 427 kts | 297° |
| 2026-04-28 19:57 | 24.50310 | -89.84827 | 32049 ft | 417 kts | 316° |
| 2026-04-28 19:58 | 24.54808 | -89.88758 | 32050 ft | 414 kts | 327° |
| 2026-04-28 19:58 | 24.59539 | -89.92361 | 32046 ft | 414 kts | 326° |
| 2026-04-28 19:59 | 24.64269 | -89.95978 | 32045 ft | 414 kts | 326° |
| 2026-04-28 19:59 | 24.68997 | -89.99591 | 32050 ft | 414 kts | 326° |
| 2026-04-28 20:00 | 24.73717 | -90.03214 | 32055 ft | 414 kts | 326° |
| 2026-04-28 20:00 | 24.78431 | -90.06838 | 32056 ft | 413 kts | 326° |
| 2026-04-28 20:01 | 24.83150 | -90.10450 | 32056 ft | 413 kts | 326° |
| 2026-04-28 20:01 | 24.87861 | -90.14067 | 32053 ft | 413 kts | 326° |
| 2026-04-28 20:02 | 24.92565 | -90.17687 | 32058 ft | 412 kts | 326° |
| 2026-04-28 20:02 | 24.97267 | -90.21305 | 32059 ft | 412 kts | 326° |
| 2026-04-28 20:03 | 25.01956 | -90.24922 | 32057 ft | 411 kts | 326° |
| 2026-04-28 20:03 | 25.05859 | -90.27928 | 32058 ft | 411 kts | 326° |
| 2026-04-28 20:04 | 25.10544 | -90.31543 | 32054 ft | 411 kts | 326° |
| 2026-04-28 20:04 | 25.15231 | -90.35162 | 32054 ft | 411 kts | 326° |
| 2026-04-28 20:05 | 25.19910 | -90.38783 | 32053 ft | 411 kts | 325° |
| 2026-04-28 20:05 | 25.24589 | -90.42409 | 32051 ft | 411 kts | 325° |
| 2026-04-28 20:06 | 25.29266 | -90.46030 | 32053 ft | 411 kts | 325° |
| 2026-04-28 20:06 | 25.33945 | -90.49659 | 32056 ft | 410 kts | 325° |
| 2026-04-28 20:07 | 25.38615 | -90.53282 | 32058 ft | 410 kts | 325° |
| 2026-04-28 20:07 | 25.43288 | -90.56903 | 32059 ft | 410 kts | 325° |
| 2026-04-28 20:08 | 25.47951 | -90.60531 | 32059 ft | 410 kts | 325° |
| 2026-04-28 20:08 | 25.52615 | -90.64162 | 32060 ft | 409 kts | 325° |
| 2026-04-28 20:09 | 25.57266 | -90.67779 | 32059 ft | 409 kts | 325° |
| 2026-04-28 20:09 | 25.61910 | -90.71410 | 32059 ft | 408 kts | 325° |
| 2026-04-28 20:10 | 25.66548 | -90.75040 | 32059 ft | 408 kts | 325° |
| 2026-04-28 20:10 | 25.71156 | -90.78643 | 32060 ft | 408 kts | 325° |
| 2026-04-28 20:11 | 25.75823 | -90.82290 | 32061 ft | 408 kts | 325° |
| 2026-04-28 20:11 | 25.80432 | -90.85894 | 32065 ft | 408 kts | 324° |
| 2026-04-28 20:12 | 25.85057 | -90.89527 | 32067 ft | 407 kts | 324° |
| 2026-04-28 20:12 | 25.89682 | -90.93158 | 32069 ft | 407 kts | 324° |
| 2026-04-28 20:13 | 25.94299 | -90.96776 | 32072 ft | 406 kts | 324° |
| 2026-04-28 20:13 | 25.98920 | -91.00402 | 32074 ft | 406 kts | 324° |
| 2026-04-28 20:14 | 26.03533 | -91.04024 | 32079 ft | 406 kts | 324° |
| 2026-04-28 20:14 | 26.08130 | -91.07655 | 32080 ft | 405 kts | 324° |
| 2026-04-28 20:15 | 26.12720 | -91.11283 | 32082 ft | 404 kts | 324° |
| 2026-04-28 20:15 | 26.17303 | -91.14904 | 32084 ft | 404 kts | 324° |
| 2026-04-28 20:16 | 26.21885 | -91.18519 | 32079 ft | 403 kts | 324° |
| 2026-04-28 20:16 | 26.26454 | -91.22124 | 32078 ft | 403 kts | 324° |
| 2026-04-28 20:17 | 26.31020 | -91.25740 | 32079 ft | 402 kts | 324° |
| 2026-04-28 20:17 | 26.35577 | -91.29352 | 32081 ft | 402 kts | 324° |
| 2026-04-28 20:18 | 26.40129 | -91.32961 | 32076 ft | 401 kts | 324° |
| 2026-04-28 20:18 | 26.44676 | -91.36563 | 32072 ft | 401 kts | 324° |
| 2026-04-28 20:19 | 26.49215 | -91.40171 | 32068 ft | 400 kts | 324° |
| 2026-04-28 20:19 | 26.53745 | -91.43779 | 32063 ft | 400 kts | 324° |
| 2026-04-28 20:20 | 26.58279 | -91.47385 | 32056 ft | 400 kts | 323° |
| 2026-04-28 20:20 | 26.62808 | -91.50993 | 32071 ft | 400 kts | 323° |
| 2026-04-28 20:21 | 26.67329 | -91.54606 | 32052 ft | 400 kts | 323° |
| 2026-04-28 20:21 | 26.71851 | -91.58223 | 32057 ft | 399 kts | 323° |
| 2026-04-28 20:22 | 26.76372 | -91.61830 | 32052 ft | 399 kts | 323° |
| 2026-04-28 20:22 | 26.80889 | -91.65449 | 32053 ft | 399 kts | 323° |
| 2026-04-28 20:23 | 26.85403 | -91.69075 | 32054 ft | 399 kts | 323° |
| 2026-04-28 20:23 | 26.89926 | -91.72692 | 32057 ft | 399 kts | 323° |
| 2026-04-28 20:24 | 26.94443 | -91.76305 | 32054 ft | 399 kts | 323° |
| 2026-04-28 20:24 | 26.98951 | -91.79932 | 32055 ft | 399 kts | 323° |
| 2026-04-28 20:25 | 27.03460 | -91.83555 | 32054 ft | 398 kts | 323° |
| 2026-04-28 20:25 | 27.07963 | -91.87183 | 32052 ft | 398 kts | 323° |
| 2026-04-28 20:26 | 27.12461 | -91.90813 | 32050 ft | 398 kts | 323° |
| 2026-04-28 20:26 | 27.16961 | -91.94443 | 32049 ft | 398 kts | 323° |
| 2026-04-28 20:27 | 27.21460 | -91.98078 | 32050 ft | 398 kts | 323° |
| 2026-04-28 20:27 | 27.25960 | -92.01717 | 32045 ft | 398 kts | 323° |
| 2026-04-28 20:28 | 27.30455 | -92.05351 | 32046 ft | 398 kts | 323° |
| 2026-04-28 20:28 | 27.34945 | -92.08988 | 32043 ft | 398 kts | 323° |
| 2026-04-28 20:29 | 27.39435 | -92.12626 | 32043 ft | 398 kts | 323° |
| 2026-04-28 20:29 | 27.43925 | -92.16277 | 32042 ft | 398 kts | 322° |
| 2026-04-28 20:30 | 27.48419 | -92.19929 | 32043 ft | 398 kts | 322° |
| 2026-04-28 20:30 | 27.52911 | -92.23580 | 32042 ft | 398 kts | 322° |
| 2026-04-28 20:31 | 27.57398 | -92.27233 | 32040 ft | 398 kts | 322° |
| 2026-04-28 20:31 | 27.61884 | -92.30886 | 32036 ft | 398 kts | 322° |
| 2026-04-28 20:32 | 27.66338 | -92.34526 | 32039 ft | 398 kts | 322° |
| 2026-04-28 20:32 | 27.70823 | -92.38192 | 32033 ft | 398 kts | 322° |
| 2026-04-28 20:33 | 27.75311 | -92.41858 | 32036 ft | 398 kts | 322° |
| 2026-04-28 20:33 | 27.79790 | -92.45526 | 32036 ft | 398 kts | 322° |
| 2026-04-28 20:34 | 27.84267 | -92.49203 | 32034 ft | 397 kts | 322° |
| 2026-04-28 20:34 | 27.88739 | -92.52868 | 32027 ft | 397 kts | 322° |
| 2026-04-28 20:35 | 27.93212 | -92.56532 | 32027 ft | 397 kts | 322° |
| 2026-04-28 20:35 | 27.97677 | -92.60205 | 32026 ft | 397 kts | 322° |
| 2026-04-28 20:36 | 28.02146 | -92.63882 | 32025 ft | 397 kts | 322° |
| 2026-04-28 20:36 | 28.06614 | -92.67562 | 32022 ft | 397 kts | 322° |
| 2026-04-28 20:37 | 28.11069 | -92.71247 | 32017 ft | 397 kts | 321° |
| 2026-04-28 20:37 | 28.15533 | -92.74928 | 32016 ft | 397 kts | 322° |
| 2026-04-28 20:38 | 28.19998 | -92.78610 | 32018 ft | 397 kts | 321° |
| 2026-04-28 20:38 | 28.24460 | -92.82309 | 32018 ft | 397 kts | 321° |
| 2026-04-28 20:39 | 28.28914 | -92.86004 | 32020 ft | 397 kts | 321° |
| 2026-04-28 20:39 | 28.33380 | -92.89701 | 32018 ft | 397 kts | 321° |
| 2026-04-28 20:40 | 28.37839 | -92.93401 | 32017 ft | 397 kts | 321° |
| 2026-04-28 20:40 | 28.42303 | -92.97107 | 32018 ft | 397 kts | 321° |
| 2026-04-28 20:41 | 28.46764 | -93.00815 | 32018 ft | 398 kts | 321° |
| 2026-04-28 20:41 | 28.51227 | -93.04535 | 32014 ft | 398 kts | 321° |
| 2026-04-28 20:42 | 28.55694 | -93.08260 | 32016 ft | 398 kts | 321° |
| 2026-04-28 20:42 | 28.60128 | -93.11963 | 32012 ft | 398 kts | 321° |
| 2026-04-28 20:43 | 28.64594 | -93.15690 | 32011 ft | 398 kts | 321° |
| 2026-04-28 20:43 | 28.69056 | -93.19427 | 32007 ft | 398 kts | 321° |
| 2026-04-28 20:44 | 28.73552 | -93.23191 | 32005 ft | 398 kts | 321° |
| 2026-04-28 20:44 | 28.77981 | -93.26906 | 32005 ft | 398 kts | 321° |
| 2026-04-28 20:45 | 28.82452 | -93.30645 | 32004 ft | 399 kts | 320° |
| 2026-04-28 20:45 | 28.86922 | -93.34397 | 32002 ft | 399 kts | 320° |
| 2026-04-28 20:46 | 28.91387 | -93.38158 | 32005 ft | 399 kts | 320° |
| 2026-04-28 20:46 | 28.95857 | -93.41920 | 32005 ft | 399 kts | 320° |
| 2026-04-28 20:47 | 29.00324 | -93.45677 | 32003 ft | 399 kts | 320° |
| 2026-04-28 20:47 | 29.04790 | -93.49446 | 32006 ft | 399 kts | 320° |
| 2026-04-28 20:48 | 29.09255 | -93.53219 | 32004 ft | 399 kts | 320° |
| 2026-04-28 20:48 | 29.13723 | -93.56998 | 32005 ft | 399 kts | 320° |
| 2026-04-28 20:49 | 29.18189 | -93.60775 | 32015 ft | 399 kts | 320° |
| 2026-04-28 20:49 | 29.21906 | -93.63915 | 32016 ft | 399 kts | 320° |
| 2026-04-28 20:50 | 29.26373 | -93.67701 | 32022 ft | 400 kts | 320° |
| 2026-04-28 20:50 | 29.30840 | -93.71494 | 32022 ft | 400 kts | 320° |
| 2026-04-28 20:51 | 29.35304 | -93.75291 | 32026 ft | 400 kts | 320° |
| 2026-04-28 20:51 | 29.39765 | -93.79090 | 32031 ft | 400 kts | 320° |
| 2026-04-28 20:52 | 29.44236 | -93.82897 | 32036 ft | 400 kts | 320° |
| 2026-04-28 20:52 | 29.48700 | -93.86704 | 32038 ft | 400 kts | 320° |
| 2026-04-28 20:53 | 29.55408 | -93.92428 | 32042 ft | 400 kts | 320° |
| 2026-04-28 20:53 | 29.59875 | -93.96250 | 32044 ft | 400 kts | 319° |
| 2026-04-28 20:54 | 29.64341 | -94.00071 | 32043 ft | 400 kts | 320° |
| 2026-04-28 20:54 | 29.68798 | -94.03895 | 32041 ft | 400 kts | 320° |
| 2026-04-28 20:55 | 29.73330 | -94.07621 | 32039 ft | 400 kts | 321° |
| 2026-04-28 20:55 | 29.77928 | -94.11238 | 32033 ft | 400 kts | 321° |
| 2026-04-28 20:56 | 29.82516 | -94.14870 | 32031 ft | 400 kts | 321° |
| 2026-04-28 20:56 | 29.87081 | -94.18538 | 32030 ft | 400 kts | 321° |
| 2026-04-28 20:57 | 29.91650 | -94.22212 | 32027 ft | 400 kts | 321° |
| 2026-04-28 20:57 | 29.96213 | -94.25881 | 32027 ft | 400 kts | 321° |
| 2026-04-28 20:58 | 30.00777 | -94.29566 | 32027 ft | 400 kts | 321° |
| 2026-04-28 20:58 | 30.05338 | -94.33248 | 32029 ft | 401 kts | 321° |
| 2026-04-28 20:59 | 30.09908 | -94.36933 | 32030 ft | 401 kts | 321° |
| 2026-04-28 20:59 | 30.14479 | -94.40625 | 32031 ft | 401 kts | 321° |
| 2026-04-28 21:00 | 30.19049 | -94.44328 | 32028 ft | 401 kts | 321° |
| 2026-04-28 21:00 | 30.23614 | -94.48037 | 32026 ft | 401 kts | 321° |
| 2026-04-28 21:01 | 30.28176 | -94.51752 | 32025 ft | 401 kts | 321° |
| 2026-04-28 21:01 | 30.32748 | -94.55467 | 32018 ft | 401 kts | 321° |
| 2026-04-28 21:02 | 30.37234 | -94.59110 | 32015 ft | 401 kts | 321° |
| 2026-04-28 21:02 | 30.41804 | -94.62816 | 32013 ft | 401 kts | 321° |
| 2026-04-28 21:03 | 30.46339 | -94.66510 | 32011 ft | 401 kts | 321° |
| 2026-04-28 21:03 | 30.50892 | -94.70234 | 32004 ft | 401 kts | 321° |
| 2026-04-28 21:04 | 30.55452 | -94.73963 | 31999 ft | 401 kts | 321° |
| 2026-04-28 21:04 | 30.60003 | -94.77685 | 31991 ft | 400 kts | 320° |
| 2026-04-28 21:05 | 30.64552 | -94.81416 | 31987 ft | 400 kts | 320° |
| 2026-04-28 21:05 | 30.69098 | -94.85140 | 31986 ft | 400 kts | 321° |
| 2026-04-28 21:06 | 30.73636 | -94.88860 | 31990 ft | 399 kts | 320° |
| 2026-04-28 21:06 | 30.78176 | -94.92590 | 31988 ft | 399 kts | 320° |
| 2026-04-28 21:07 | 30.82710 | -94.96313 | 31981 ft | 399 kts | 320° |
| 2026-04-28 21:07 | 30.87237 | -95.00047 | 31981 ft | 398 kts | 320° |
| 2026-04-28 21:08 | 30.91752 | -95.03773 | 31977 ft | 398 kts | 320° |
| 2026-04-28 21:08 | 30.96266 | -95.07500 | 31969 ft | 398 kts | 320° |
| 2026-04-28 21:09 | 31.00783 | -95.11231 | 31974 ft | 398 kts | 320° |
| 2026-04-28 21:09 | 31.05300 | -95.14967 | 31974 ft | 398 kts | 320° |
| 2026-04-28 21:10 | 31.09806 | -95.18713 | 31964 ft | 398 kts | 320° |
| 2026-04-28 21:10 | 31.14314 | -95.22450 | 31957 ft | 397 kts | 320° |
| 2026-04-28 21:11 | 31.18824 | -95.26186 | 31943 ft | 397 kts | 320° |
| 2026-04-28 21:11 | 31.23324 | -95.29930 | 31937 ft | 397 kts | 320° |
| 2026-04-28 21:12 | 31.27822 | -95.33681 | 31929 ft | 398 kts | 320° |
| 2026-04-28 21:12 | 31.32334 | -95.37434 | 31935 ft | 398 kts | 320° |
| 2026-04-28 21:13 | 31.36847 | -95.41193 | 31931 ft | 398 kts | 320° |
| 2026-04-28 21:13 | 31.41357 | -95.44966 | 31931 ft | 399 kts | 320° |
| 2026-04-28 21:14 | 31.45862 | -95.48753 | 31933 ft | 399 kts | 320° |
| 2026-04-28 21:14 | 31.50379 | -95.52533 | 31929 ft | 399 kts | 320° |
| 2026-04-28 21:15 | 31.54899 | -95.56331 | 31942 ft | 400 kts | 320° |
| 2026-04-28 21:15 | 31.59424 | -95.60129 | 31941 ft | 400 kts | 320° |
| 2026-04-28 21:16 | 31.63958 | -95.63932 | 31936 ft | 401 kts | 320° |
| 2026-04-28 21:16 | 31.68494 | -95.67741 | 31940 ft | 401 kts | 319° |
| 2026-04-28 21:17 | 31.73024 | -95.71561 | 31938 ft | 401 kts | 319° |
| 2026-04-28 21:17 | 31.77552 | -95.75385 | 31938 ft | 401 kts | 319° |
| 2026-04-28 21:18 | 31.82079 | -95.79222 | 31932 ft | 402 kts | 319° |
| 2026-04-28 21:18 | 31.86593 | -95.83041 | 31935 ft | 403 kts | 319° |
| 2026-04-28 21:19 | 31.91171 | -95.86912 | 31937 ft | 403 kts | 319° |
| 2026-04-28 21:19 | 31.95705 | -95.90753 | 31942 ft | 404 kts | 319° |
| 2026-04-28 21:20 | 32.00267 | -95.94626 | 31946 ft | 405 kts | 319° |
| 2026-04-28 21:20 | 32.04839 | -95.98520 | 31952 ft | 405 kts | 319° |
| 2026-04-28 21:21 | 32.09416 | -96.02413 | 31951 ft | 406 kts | 318° |
| 2026-04-28 21:21 | 32.14001 | -96.06312 | 31946 ft | 406 kts | 318° |
| 2026-04-28 21:22 | 32.18573 | -96.10215 | 31948 ft | 406 kts | 318° |
| 2026-04-28 21:22 | 32.22367 | -96.13470 | 31950 ft | 406 kts | 318° |
| 2026-04-28 21:23 | 32.27713 | -96.18050 | 31952 ft | 406 kts | 317° |
| 2026-04-28 21:23 | 32.32290 | -96.21958 | 31952 ft | 406 kts | 317° |
| 2026-04-28 21:24 | 32.36856 | -96.25873 | 31962 ft | 405 kts | 317° |
| 2026-04-28 21:24 | 32.41405 | -96.29782 | 31941 ft | 404 kts | 317° |
| 2026-04-28 21:25 | 32.45958 | -96.33693 | 31940 ft | 404 kts | 317° |
| 2026-04-28 21:25 | 32.50499 | -96.37598 | 31937 ft | 403 kts | 317° |
| 2026-04-28 21:26 | 32.55039 | -96.41508 | 31936 ft | 403 kts | 317° |
| 2026-04-28 21:26 | 32.59563 | -96.45416 | 31938 ft | 402 kts | 317° |
| 2026-04-28 21:27 | 32.64077 | -96.49317 | 31938 ft | 401 kts | 317° |
| 2026-04-28 21:27 | 32.68552 | -96.53192 | 31942 ft | 400 kts | 317° |
| 2026-04-28 21:28 | 32.73067 | -96.57106 | 31943 ft | 399 kts | 316° |
| 2026-04-28 21:28 | 32.77524 | -96.60977 | 31944 ft | 399 kts | 316° |
| 2026-04-28 21:29 | 32.81996 | -96.64865 | 31933 ft | 398 kts | 316° |
| 2026-04-28 21:29 | 32.86473 | -96.68746 | 31922 ft | 398 kts | 316° |
| 2026-04-28 21:30 | 32.90938 | -96.72630 | 31923 ft | 397 kts | 316° |
| 2026-04-28 21:30 | 32.95393 | -96.76527 | 31922 ft | 397 kts | 316° |
| 2026-04-28 21:31 | 32.99849 | -96.80432 | 31922 ft | 398 kts | 316° |
| 2026-04-28 21:31 | 33.04316 | -96.84328 | 31919 ft | 398 kts | 316° |
| 2026-04-28 21:32 | 33.08784 | -96.88227 | 31915 ft | 397 kts | 316° |
| 2026-04-28 21:32 | 33.13240 | -96.92124 | 31905 ft | 397 kts | 315° |
| 2026-04-28 21:33 | 33.17688 | -96.96032 | 31887 ft | 397 kts | 315° |
| 2026-04-28 21:33 | 33.22138 | -96.99955 | 31893 ft | 398 kts | 315° |
| 2026-04-28 21:34 | 33.26593 | -97.03881 | 31900 ft | 398 kts | 315° |
| 2026-04-28 21:34 | 33.30292 | -97.07144 | 31905 ft | 398 kts | 315° |
| 2026-04-28 21:35 | 33.34744 | -97.11065 | 31904 ft | 397 kts | 315° |
| 2026-04-28 21:35 | 33.39188 | -97.14983 | 31902 ft | 396 kts | 315° |
| 2026-04-28 21:36 | 33.43621 | -97.18902 | 31923 ft | 396 kts | 315° |
| 2026-04-28 21:36 | 33.48050 | -97.22820 | 31932 ft | 395 kts | 315° |
| 2026-04-28 21:37 | 33.52473 | -97.26736 | 31936 ft | 395 kts | 315° |
| 2026-04-28 21:37 | 33.56854 | -97.30636 | 31938 ft | 395 kts | 315° |
| 2026-04-28 21:38 | 33.61267 | -97.34565 | 31941 ft | 395 kts | 315° |
| 2026-04-28 21:38 | 33.65688 | -97.38498 | 31929 ft | 395 kts | 315° |
| 2026-04-28 21:39 | 33.70106 | -97.42433 | 31922 ft | 395 kts | 315° |
| 2026-04-28 21:39 | 33.74526 | -97.46366 | 31914 ft | 396 kts | 315° |
| 2026-04-28 21:40 | 33.78950 | -97.50313 | 31896 ft | 396 kts | 315° |
| 2026-04-28 21:40 | 33.83359 | -97.54266 | 31881 ft | 396 kts | 314° |
| 2026-04-28 21:41 | 33.87778 | -97.58235 | 31878 ft | 396 kts | 315° |
| 2026-04-28 21:41 | 33.92197 | -97.62205 | 31873 ft | 396 kts | 315° |
| 2026-04-28 21:42 | 33.96622 | -97.66180 | 31876 ft | 397 kts | 315° |
| 2026-04-28 21:42 | 34.01051 | -97.70156 | 31865 ft | 397 kts | 315° |
| 2026-04-28 21:43 | 34.05481 | -97.74142 | 31867 ft | 398 kts | 315° |
| 2026-04-28 21:43 | 34.09914 | -97.78136 | 31870 ft | 398 kts | 315° |
| 2026-04-28 21:44 | 34.14349 | -97.82143 | 31876 ft | 398 kts | 315° |
| 2026-04-28 21:44 | 34.18780 | -97.86156 | 31894 ft | 398 kts | 315° |
| 2026-04-28 21:45 | 34.23219 | -97.90164 | 31908 ft | 398 kts | 315° |
| 2026-04-28 21:45 | 34.27656 | -97.94178 | 31921 ft | 399 kts | 315° |
| 2026-04-28 21:46 | 34.32065 | -97.98183 | 31928 ft | 399 kts | 315° |
| 2026-04-28 21:46 | 34.36527 | -98.02252 | 31936 ft | 399 kts | 315° |
| 2026-04-28 21:47 | 34.40965 | -98.06292 | 31943 ft | 399 kts | 315° |
| 2026-04-28 21:47 | 34.45375 | -98.10311 | 31945 ft | 399 kts | 314° |
| 2026-04-28 21:48 | 34.49806 | -98.14358 | 31940 ft | 399 kts | 314° |
| 2026-04-28 21:48 | 34.54243 | -98.18413 | 31934 ft | 399 kts | 314° |
| 2026-04-28 21:49 | 34.58672 | -98.22461 | 31949 ft | 399 kts | 314° |
| 2026-04-28 21:49 | 34.63102 | -98.26517 | 31931 ft | 398 kts | 314° |
| 2026-04-28 21:50 | 34.67521 | -98.30578 | 31935 ft | 398 kts | 314° |
| 2026-04-28 21:50 | 34.71935 | -98.34641 | 31938 ft | 398 kts | 314° |
| 2026-04-28 21:51 | 34.76350 | -98.38703 | 31936 ft | 398 kts | 314° |
| 2026-04-28 21:51 | 34.80766 | -98.42775 | 31932 ft | 398 kts | 314° |
| 2026-04-28 21:52 | 34.85174 | -98.46841 | 31932 ft | 398 kts | 314° |
| 2026-04-28 21:52 | 34.89587 | -98.50919 | 31934 ft | 398 kts | 314° |
| 2026-04-28 21:53 | 34.93991 | -98.54996 | 31938 ft | 398 kts | 314° |
| 2026-04-28 21:53 | 34.98393 | -98.59077 | 31947 ft | 398 kts | 314° |
| 2026-04-28 21:54 | 35.02801 | -98.63165 | 31956 ft | 398 kts | 314° |
| 2026-04-28 21:54 | 35.07178 | -98.67234 | 31971 ft | 398 kts | 314° |
| 2026-04-28 21:55 | 35.11588 | -98.71332 | 31979 ft | 398 kts | 314° |
| 2026-04-28 21:55 | 35.15994 | -98.75437 | 31984 ft | 398 kts | 314° |
| 2026-04-28 21:56 | 35.20390 | -98.79552 | 31990 ft | 398 kts | 314° |
| 2026-04-28 21:56 | 35.24779 | -98.83658 | 31996 ft | 398 kts | 314° |
| 2026-04-28 21:57 | 35.29175 | -98.87770 | 32011 ft | 397 kts | 314° |
| 2026-04-28 21:57 | 35.33565 | -98.91887 | 32019 ft | 397 kts | 314° |
| 2026-04-28 21:58 | 35.37951 | -98.95999 | 32013 ft | 397 kts | 314° |
| 2026-04-28 21:58 | 35.42336 | -99.00118 | 32018 ft | 397 kts | 314° |
| 2026-04-28 21:59 | 35.46706 | -99.04238 | 32023 ft | 396 kts | 314° |
| 2026-04-28 22:00 | 35.53256 | -99.10410 | 32020 ft | 395 kts | 314° |
| 2026-04-28 22:00 | 35.57609 | -99.14524 | 32019 ft | 395 kts | 314° |
| 2026-04-28 22:01 | 35.61958 | -99.18639 | 32010 ft | 394 kts | 313° |
| 2026-04-28 22:01 | 35.66296 | -99.22747 | 32005 ft | 394 kts | 313° |
| 2026-04-28 22:02 | 35.70602 | -99.26832 | 32006 ft | 393 kts | 313° |
| 2026-04-28 22:02 | 35.74931 | -99.30943 | 32012 ft | 393 kts | 313° |
| 2026-04-28 22:03 | 35.79265 | -99.35052 | 32006 ft | 393 kts | 313° |
| 2026-04-28 22:03 | 35.83592 | -99.39170 | 32006 ft | 393 kts | 313° |
| 2026-04-28 22:04 | 35.87911 | -99.43301 | 32009 ft | 393 kts | 313° |
| 2026-04-28 22:04 | 35.92228 | -99.47434 | 32007 ft | 393 kts | 313° |
| 2026-04-28 22:05 | 35.96550 | -99.51569 | 32007 ft | 393 kts | 313° |
| 2026-04-28 22:05 | 36.00864 | -99.55700 | 32010 ft | 392 kts | 313° |
| 2026-04-28 22:06 | 36.05170 | -99.59824 | 32016 ft | 392 kts | 313° |
| 2026-04-28 22:06 | 36.09478 | -99.63958 | 32021 ft | 392 kts | 313° |
| 2026-04-28 22:07 | 36.13780 | -99.68100 | 32028 ft | 392 kts | 313° |
| 2026-04-28 22:07 | 36.18078 | -99.72246 | 32041 ft | 391 kts | 313° |
| 2026-04-28 22:08 | 36.22366 | -99.76392 | 32048 ft | 391 kts | 313° |
| 2026-04-28 22:08 | 36.26653 | -99.80535 | 32048 ft | 391 kts | 313° |
| 2026-04-28 22:09 | 36.30939 | -99.84669 | 32049 ft | 390 kts | 313° |
| 2026-04-28 22:09 | 36.35217 | -99.88808 | 32047 ft | 390 kts | 313° |
| 2026-04-28 22:10 | 36.39517 | -99.92906 | 32050 ft | 390 kts | 313° |
| 2026-04-28 22:10 | 36.43840 | -99.96965 | 32044 ft | 389 kts | 313° |
| 2026-04-28 22:11 | 36.48151 | -100.01029 | 32048 ft | 389 kts | 313° |
| 2026-04-28 22:11 | 36.52440 | -100.05107 | 32043 ft | 388 kts | 313° |
| 2026-04-28 22:12 | 36.56728 | -100.09184 | 32043 ft | 387 kts | 313° |
| 2026-04-28 22:12 | 36.61000 | -100.13251 | 32041 ft | 387 kts | 313° |
| 2026-04-28 22:13 | 36.65271 | -100.17316 | 32042 ft | 386 kts | 312° |
| 2026-04-28 22:13 | 36.69531 | -100.21377 | 32043 ft | 385 kts | 312° |
| 2026-04-28 22:14 | 36.73783 | -100.25432 | 32042 ft | 384 kts | 312° |
| 2026-04-28 22:14 | 36.77991 | -100.29462 | 32050 ft | 383 kts | 312° |
| 2026-04-28 22:15 | 36.82242 | -100.33543 | 32053 ft | 383 kts | 312° |
| 2026-04-28 22:15 | 36.86430 | -100.37563 | 32059 ft | 382 kts | 312° |
| 2026-04-28 22:16 | 36.90637 | -100.41609 | 32059 ft | 381 kts | 312° |
| 2026-04-28 22:16 | 36.94858 | -100.45672 | 32056 ft | 380 kts | 312° |
| 2026-04-28 22:17 | 36.99020 | -100.49682 | 32046 ft | 379 kts | 311° |
| 2026-04-28 22:17 | 37.03192 | -100.53714 | 32052 ft | 379 kts | 311° |
| 2026-04-28 22:18 | 37.07352 | -100.57735 | 32060 ft | 378 kts | 311° |
| 2026-04-28 22:18 | 37.11511 | -100.61756 | 32063 ft | 377 kts | 311° |
| 2026-04-28 22:19 | 37.15662 | -100.65766 | 32066 ft | 376 kts | 311° |
| 2026-04-28 22:19 | 37.19802 | -100.69781 | 32064 ft | 376 kts | 311° |
| 2026-04-28 22:20 | 37.23932 | -100.73802 | 32060 ft | 375 kts | 311° |
| 2026-04-28 22:20 | 37.28056 | -100.77826 | 32058 ft | 375 kts | 311° |
| 2026-04-28 22:21 | 37.32179 | -100.81847 | 32054 ft | 375 kts | 311° |
| 2026-04-28 22:21 | 37.36298 | -100.85873 | 32042 ft | 375 kts | 311° |
| 2026-04-28 22:22 | 37.40413 | -100.89902 | 32048 ft | 375 kts | 311° |
| 2026-04-28 22:22 | 37.44529 | -100.93932 | 32038 ft | 375 kts | 311° |
| 2026-04-28 22:23 | 37.47946 | -100.97284 | 32045 ft | 375 kts | 311° |
| 2026-04-28 22:23 | 37.52058 | -101.01320 | 32038 ft | 375 kts | 311° |
| 2026-04-28 22:24 | 37.56166 | -101.05356 | 32042 ft | 374 kts | 310° |
| 2026-04-28 22:24 | 37.60267 | -101.09394 | 32047 ft | 374 kts | 310° |
| 2026-04-28 22:25 | 37.64368 | -101.13442 | 32049 ft | 374 kts | 310° |
| 2026-04-28 22:25 | 37.68462 | -101.17483 | 32050 ft | 374 kts | 310° |
| 2026-04-28 22:26 | 37.72555 | -101.21523 | 32053 ft | 373 kts | 310° |
| 2026-04-28 22:26 | 37.76635 | -101.25568 | 32055 ft | 372 kts | 310° |
| 2026-04-28 22:27 | 37.80708 | -101.29606 | 32058 ft | 372 kts | 310° |
| 2026-04-28 22:27 | 37.84775 | -101.33652 | 32057 ft | 371 kts | 310° |
| 2026-04-28 22:28 | 37.88833 | -101.37685 | 32060 ft | 371 kts | 310° |
| 2026-04-28 22:28 | 37.92889 | -101.41724 | 32058 ft | 370 kts | 310° |
| 2026-04-28 22:29 | 37.96933 | -101.45758 | 32062 ft | 370 kts | 310° |
| 2026-04-28 22:29 | 38.00974 | -101.49794 | 32064 ft | 370 kts | 310° |
| 2026-04-28 22:30 | 38.05012 | -101.53827 | 32061 ft | 369 kts | 310° |
| 2026-04-28 22:30 | 38.09037 | -101.57860 | 32067 ft | 368 kts | 310° |
| 2026-04-28 22:31 | 38.13050 | -101.61903 | 32062 ft | 368 kts | 310° |
| 2026-04-28 22:31 | 38.17059 | -101.65936 | 32064 ft | 368 kts | 310° |
| 2026-04-28 22:32 | 38.21071 | -101.69967 | 32067 ft | 367 kts | 310° |
| 2026-04-28 22:32 | 38.25075 | -101.74010 | 32063 ft | 367 kts | 310° |
| 2026-04-28 22:33 | 38.29042 | -101.78025 | 32065 ft | 367 kts | 310° |
| 2026-04-28 22:33 | 38.33049 | -101.82067 | 32063 ft | 367 kts | 310° |
| 2026-04-28 22:34 | 38.37020 | -101.86137 | 32060 ft | 366 kts | 309° |
| 2026-04-28 22:34 | 38.40946 | -101.90263 | 32057 ft | 366 kts | 309° |
| 2026-04-28 22:35 | 38.44862 | -101.94410 | 32052 ft | 366 kts | 309° |
| 2026-04-28 22:35 | 38.48789 | -101.98561 | 32047 ft | 367 kts | 309° |
| 2026-04-28 22:36 | 38.52723 | -102.02711 | 32050 ft | 367 kts | 309° |
| 2026-04-28 22:36 | 38.56663 | -102.06867 | 32048 ft | 367 kts | 309° |
| 2026-04-28 22:37 | 38.60600 | -102.11031 | 32051 ft | 368 kts | 309° |
| 2026-04-28 22:37 | 38.64545 | -102.15210 | 32052 ft | 369 kts | 309° |
| 2026-04-28 22:38 | 38.68500 | -102.19402 | 32048 ft | 369 kts | 309° |
| 2026-04-28 22:38 | 38.72455 | -102.23609 | 32045 ft | 370 kts | 309° |
| 2026-04-28 22:39 | 38.76417 | -102.27828 | 32038 ft | 371 kts | 309° |
| 2026-04-28 22:39 | 38.80388 | -102.32061 | 32038 ft | 371 kts | 310° |
| 2026-04-28 22:40 | 38.84365 | -102.36304 | 32042 ft | 372 kts | 310° |
| 2026-04-28 22:40 | 38.88343 | -102.40556 | 32039 ft | 373 kts | 310° |
| 2026-04-28 22:41 | 38.92328 | -102.44824 | 32045 ft | 373 kts | 310° |
| 2026-04-28 22:41 | 38.96285 | -102.49081 | 32050 ft | 374 kts | 310° |
| 2026-04-28 22:42 | 39.00274 | -102.53369 | 32049 ft | 374 kts | 310° |
| 2026-04-28 22:42 | 39.04278 | -102.57665 | 32057 ft | 375 kts | 310° |
| 2026-04-28 22:43 | 39.08286 | -102.61977 | 32054 ft | 375 kts | 310° |
| 2026-04-28 22:43 | 39.12287 | -102.66294 | 32049 ft | 376 kts | 310° |
| 2026-04-28 22:44 | 39.16297 | -102.70626 | 32046 ft | 376 kts | 310° |
| 2026-04-28 22:44 | 39.20302 | -102.74964 | 32039 ft | 376 kts | 310° |
| 2026-04-28 22:45 | 39.24313 | -102.79312 | 32041 ft | 377 kts | 310° |
| 2026-04-28 22:45 | 39.28317 | -102.83670 | 32041 ft | 377 kts | 310° |
| 2026-04-28 22:46 | 39.32334 | -102.88038 | 32040 ft | 378 kts | 310° |
| 2026-04-28 22:46 | 39.36354 | -102.92411 | 32044 ft | 378 kts | 310° |
| 2026-04-28 22:47 | 39.40378 | -102.96795 | 32042 ft | 379 kts | 310° |
| 2026-04-28 22:47 | 39.44406 | -103.01194 | 32041 ft | 379 kts | 310° |
| 2026-04-28 22:48 | 39.48435 | -103.05600 | 32039 ft | 380 kts | 311° |
| 2026-04-28 22:48 | 39.52476 | -103.10017 | 32046 ft | 380 kts | 311° |
| 2026-04-28 22:49 | 39.56518 | -103.14444 | 32045 ft | 381 kts | 311° |
| 2026-04-28 22:49 | 39.60561 | -103.18888 | 32045 ft | 381 kts | 311° |
| 2026-04-28 22:50 | 39.64581 | -103.23317 | 32046 ft | 382 kts | 311° |
| 2026-04-28 22:50 | 39.68664 | -103.27819 | 32046 ft | 383 kts | 311° |
| 2026-04-28 22:51 | 39.72695 | -103.32276 | 32047 ft | 383 kts | 311° |
| 2026-04-28 22:51 | 39.76757 | -103.36773 | 32052 ft | 384 kts | 311° |
| 2026-04-28 22:52 | 39.80823 | -103.41275 | 32049 ft | 384 kts | 311° |
| 2026-04-28 22:52 | 39.84917 | -103.45818 | 32050 ft | 384 kts | 311° |
| 2026-04-28 22:53 | 39.88987 | -103.50343 | 32045 ft | 385 kts | 311° |
| 2026-04-28 22:53 | 39.93028 | -103.54842 | 32039 ft | 385 kts | 311° |
| 2026-04-28 22:54 | 39.97131 | -103.59413 | 32021 ft | 385 kts | 311° |
| 2026-04-28 22:54 | 40.01174 | -103.63928 | 32023 ft | 385 kts | 311° |
| 2026-04-28 22:55 | 40.05242 | -103.68481 | 32040 ft | 385 kts | 311° |
| 2026-04-28 22:55 | 40.09308 | -103.73040 | 32041 ft | 385 kts | 310° |
| 2026-04-28 22:56 | 40.13379 | -103.77597 | 32055 ft | 386 kts | 311° |
| 2026-04-28 22:56 | 40.17446 | -103.82169 | 32064 ft | 386 kts | 311° |
| 2026-04-28 22:57 | 40.21657 | -103.86566 | 32072 ft | 392 kts | 316° |
| 2026-04-28 22:57 | 40.26164 | -103.90599 | 32078 ft | 393 kts | 316° |
| 2026-04-28 22:58 | 40.30675 | -103.94647 | 32077 ft | 393 kts | 316° |
| 2026-04-28 22:58 | 40.35186 | -103.98697 | 32068 ft | 393 kts | 316° |
| 2026-04-28 22:59 | 40.39695 | -104.02755 | 32049 ft | 394 kts | 316° |
| 2026-04-28 22:59 | 40.44216 | -104.06837 | 32033 ft | 394 kts | 317° |
| 2026-04-28 23:00 | 40.48737 | -104.10926 | 32018 ft | 395 kts | 317° |
| 2026-04-28 23:00 | 40.53262 | -104.15030 | 31999 ft | 395 kts | 317° |
| 2026-04-28 23:01 | 40.57791 | -104.19138 | 31987 ft | 396 kts | 317° |
| 2026-04-28 23:01 | 40.62337 | -104.23259 | 31983 ft | 397 kts | 317° |
| 2026-04-28 23:02 | 40.66889 | -104.27395 | 31983 ft | 398 kts | 317° |
| 2026-04-28 23:02 | 40.71448 | -104.31557 | 31997 ft | 399 kts | 317° |
| 2026-04-28 23:03 | 40.75983 | -104.35710 | 31997 ft | 400 kts | 317° |
| 2026-04-28 23:03 | 40.80565 | -104.39905 | 32006 ft | 401 kts | 318° |
| 2026-04-28 23:04 | 40.85162 | -104.44103 | 32012 ft | 402 kts | 318° |
| 2026-04-28 23:04 | 40.92066 | -104.50427 | 32037 ft | 403 kts | 318° |
| 2026-04-28 23:05 | 40.96670 | -104.54669 | 32066 ft | 404 kts | 318° |
| 2026-04-28 23:05 | 41.01273 | -104.58925 | 32089 ft | 404 kts | 318° |
| 2026-04-28 23:06 | 41.05887 | -104.63188 | 32102 ft | 404 kts | 318° |
| 2026-04-28 23:06 | 41.10505 | -104.67456 | 32115 ft | 405 kts | 319° |
| 2026-04-28 23:07 | 41.15127 | -104.71743 | 32119 ft | 405 kts | 319° |
| 2026-04-28 23:07 | 41.19750 | -104.76038 | 32116 ft | 406 kts | 319° |
| 2026-04-28 23:08 | 41.24491 | -104.80160 | 32116 ft | 410 kts | 322° |
| 2026-04-28 23:08 | 41.29468 | -104.83913 | 32112 ft | 412 kts | 324° |
| 2026-04-28 23:09 | 41.34467 | -104.87632 | 32113 ft | 412 kts | 324° |
| 2026-04-28 23:09 | 41.39430 | -104.91443 | 32111 ft | 412 kts | 323° |
| 2026-04-28 23:10 | 41.43534 | -104.94660 | 32113 ft | 412 kts | 323° |
| 2026-04-28 23:10 | 41.48472 | -104.98538 | 32116 ft | 412 kts | 323° |
| 2026-04-28 23:11 | 41.53419 | -105.02407 | 32124 ft | 412 kts | 323° |
| 2026-04-28 23:11 | 41.58367 | -105.06276 | 32129 ft | 412 kts | 323° |
| 2026-04-28 23:12 | 41.63311 | -105.10144 | 32132 ft | 412 kts | 323° |
| 2026-04-28 23:12 | 41.68263 | -105.14024 | 32134 ft | 412 kts | 323° |
| 2026-04-28 23:13 | 41.73210 | -105.17914 | 32131 ft | 412 kts | 323° |
| 2026-04-28 23:13 | 41.78150 | -105.21819 | 32133 ft | 412 kts | 323° |
| 2026-04-28 23:14 | 41.83096 | -105.25731 | 32128 ft | 413 kts | 323° |
| 2026-04-28 23:14 | 41.88045 | -105.29641 | 32124 ft | 413 kts | 323° |
| 2026-04-28 23:15 | 41.92992 | -105.33554 | 32124 ft | 413 kts | 323° |
| 2026-04-28 23:15 | 41.97936 | -105.37480 | 32119 ft | 413 kts | 323° |
| 2026-04-28 23:16 | 42.02879 | -105.41419 | 32115 ft | 413 kts | 323° |
| 2026-04-28 23:16 | 42.07815 | -105.45362 | 32120 ft | 413 kts | 323° |
| 2026-04-28 23:17 | 42.12753 | -105.49307 | 32120 ft | 413 kts | 324° |
| 2026-04-28 23:17 | 42.17702 | -105.53257 | 32120 ft | 413 kts | 324° |
| 2026-04-28 23:18 | 42.22640 | -105.57205 | 32122 ft | 413 kts | 324° |
| 2026-04-28 23:18 | 42.27545 | -105.61146 | 32126 ft | 413 kts | 324° |
| 2026-04-28 23:19 | 42.32477 | -105.65113 | 32132 ft | 412 kts | 324° |
| 2026-04-28 23:19 | 42.37398 | -105.69086 | 32134 ft | 412 kts | 324° |
| 2026-04-28 23:20 | 42.42321 | -105.73055 | 32134 ft | 412 kts | 324° |
| 2026-04-28 23:20 | 42.47240 | -105.77024 | 32129 ft | 411 kts | 324° |
| 2026-04-28 23:21 | 42.52150 | -105.80998 | 32127 ft | 411 kts | 324° |
| 2026-04-28 23:21 | 42.57055 | -105.84987 | 32118 ft | 411 kts | 324° |
| 2026-04-28 23:22 | 42.61954 | -105.88975 | 32118 ft | 411 kts | 324° |
| 2026-04-28 23:22 | 42.66853 | -105.92967 | 32116 ft | 411 kts | 324° |
| 2026-04-28 23:23 | 42.71755 | -105.96965 | 32118 ft | 411 kts | 324° |
| 2026-04-28 23:23 | 42.76651 | -106.00969 | 32113 ft | 411 kts | 324° |
| 2026-04-28 23:24 | 42.81543 | -106.04982 | 32104 ft | 411 kts | 324° |
| 2026-04-28 23:24 | 42.86441 | -106.08998 | 32095 ft | 411 kts | 324° |
| 2026-04-28 23:25 | 42.91330 | -106.13020 | 32096 ft | 411 kts | 324° |
| 2026-04-28 23:25 | 42.96220 | -106.17055 | 32096 ft | 411 kts | 324° |
| 2026-04-28 23:26 | 43.01076 | -106.21062 | 32099 ft | 411 kts | 324° |
| 2026-04-28 23:26 | 43.05972 | -106.25106 | 32099 ft | 411 kts | 324° |
| 2026-04-28 23:27 | 43.10862 | -106.29147 | 32098 ft | 411 kts | 324° |
| 2026-04-28 23:27 | 43.15769 | -106.33170 | 32097 ft | 411 kts | 324° |
| 2026-04-28 23:28 | 43.20675 | -106.37187 | 32091 ft | 411 kts | 324° |
| 2026-04-28 23:28 | 43.25579 | -106.41216 | 32084 ft | 411 kts | 324° |
| 2026-04-28 23:29 | 43.30484 | -106.45260 | 32084 ft | 411 kts | 324° |
| 2026-04-28 23:29 | 43.35385 | -106.49306 | 32083 ft | 411 kts | 324° |
| 2026-04-28 23:30 | 43.40293 | -106.53359 | 32083 ft | 411 kts | 324° |
| 2026-04-28 23:30 | 43.45197 | -106.57416 | 32084 ft | 412 kts | 324° |
| 2026-04-28 23:31 | 43.50099 | -106.61496 | 32084 ft | 412 kts | 324° |
| 2026-04-28 23:31 | 43.55002 | -106.65581 | 32095 ft | 412 kts | 324° |
| 2026-04-28 23:32 | 43.59910 | -106.69664 | 32089 ft | 412 kts | 324° |
| 2026-04-28 23:32 | 43.64821 | -106.73757 | 32099 ft | 412 kts | 324° |
| 2026-04-28 23:33 | 43.69725 | -106.77858 | 32103 ft | 412 kts | 324° |
| 2026-04-28 23:33 | 43.74627 | -106.81972 | 32110 ft | 412 kts | 324° |
| 2026-04-28 23:34 | 43.79526 | -106.86086 | 32116 ft | 412 kts | 325° |
| 2026-04-28 23:34 | 43.84391 | -106.90175 | 32121 ft | 411 kts | 325° |
| 2026-04-28 23:35 | 43.89282 | -106.94291 | 32126 ft | 412 kts | 325° |
| 2026-04-28 23:35 | 43.94172 | -106.98426 | 32129 ft | 412 kts | 325° |
| 2026-04-28 23:36 | 43.99061 | -107.02561 | 32137 ft | 412 kts | 325° |
| 2026-04-28 23:36 | 44.03951 | -107.06708 | 32145 ft | 412 kts | 325° |
| 2026-04-28 23:37 | 44.08836 | -107.10861 | 32149 ft | 412 kts | 324° |
| 2026-04-28 23:37 | 44.13720 | -107.15022 | 32156 ft | 411 kts | 325° |
| 2026-04-28 23:38 | 44.18604 | -107.19184 | 32161 ft | 411 kts | 324° |
| 2026-04-28 23:38 | 44.23483 | -107.23354 | 32164 ft | 411 kts | 324° |
| 2026-04-28 23:39 | 44.28366 | -107.27531 | 32173 ft | 411 kts | 325° |
| 2026-04-28 23:39 | 44.33238 | -107.31712 | 32177 ft | 411 kts | 324° |
| 2026-04-28 23:40 | 44.38112 | -107.35909 | 32184 ft | 411 kts | 324° |
| 2026-04-28 23:40 | 44.42982 | -107.40103 | 32182 ft | 411 kts | 325° |
| 2026-04-28 23:41 | 44.47857 | -107.44298 | 32176 ft | 411 kts | 324° |
| 2026-04-28 23:41 | 44.52722 | -107.48510 | 32176 ft | 411 kts | 324° |
| 2026-04-28 23:42 | 44.57590 | -107.52731 | 32183 ft | 411 kts | 324° |
| 2026-04-28 23:42 | 44.62454 | -107.56960 | 32183 ft | 411 kts | 324° |
| 2026-04-28 23:43 | 44.67316 | -107.61187 | 32183 ft | 411 kts | 325° |
| 2026-04-28 23:43 | 44.72180 | -107.65416 | 32177 ft | 411 kts | 325° |
| 2026-04-28 23:44 | 44.77005 | -107.69630 | 32173 ft | 411 kts | 324° |
| 2026-04-28 23:44 | 44.81856 | -107.73886 | 32165 ft | 411 kts | 324° |
| 2026-04-28 23:45 | 44.86712 | -107.78150 | 32172 ft | 411 kts | 324° |
| 2026-04-28 23:45 | 44.91567 | -107.82411 | 32169 ft | 411 kts | 325° |
| 2026-04-28 23:46 | 44.96425 | -107.86683 | 32162 ft | 412 kts | 324° |
| 2026-04-28 23:46 | 45.01282 | -107.90977 | 32161 ft | 412 kts | 324° |
| 2026-04-28 23:47 | 45.06140 | -107.95282 | 32160 ft | 412 kts | 324° |
| 2026-04-28 23:47 | 45.11005 | -107.99596 | 32159 ft | 412 kts | 324° |
| 2026-04-28 23:48 | 45.15868 | -108.03909 | 32155 ft | 413 kts | 324° |
| 2026-04-28 23:48 | 45.20736 | -108.08234 | 32142 ft | 413 kts | 324° |
| 2026-04-28 23:49 | 45.25594 | -108.12573 | 32149 ft | 413 kts | 324° |
| 2026-04-28 23:49 | 45.30453 | -108.16923 | 32138 ft | 413 kts | 324° |
| 2026-04-28 23:50 | 45.35316 | -108.21267 | 32140 ft | 413 kts | 324° |
| 2026-04-28 23:50 | 45.40189 | -108.25628 | 32136 ft | 413 kts | 324° |
| 2026-04-28 23:51 | 45.45052 | -108.29993 | 32137 ft | 414 kts | 324° |
| 2026-04-28 23:51 | 45.49917 | -108.34376 | 32133 ft | 414 kts | 324° |
| 2026-04-28 23:52 | 45.54777 | -108.38774 | 32122 ft | 414 kts | 324° |
| 2026-04-28 23:52 | 45.59644 | -108.43172 | 32113 ft | 414 kts | 324° |
| 2026-04-28 23:53 | 45.64502 | -108.47579 | 32107 ft | 414 kts | 324° |
| 2026-04-28 23:53 | 45.69364 | -108.51992 | 32098 ft | 414 kts | 324° |
| 2026-04-28 23:54 | 45.74229 | -108.56415 | 32097 ft | 414 kts | 324° |
| 2026-04-28 23:54 | 45.79083 | -108.60844 | 32096 ft | 414 kts | 324° |
| 2026-04-28 23:55 | 45.83971 | -108.65219 | 32096 ft | 415 kts | 326° |
| 2026-04-28 23:55 | 45.88980 | -108.69333 | 32102 ft | 415 kts | 328° |
| 2026-04-28 23:56 | 45.94005 | -108.73397 | 32105 ft | 415 kts | 327° |
| 2026-04-28 23:56 | 45.99004 | -108.77536 | 32113 ft | 414 kts | 327° |
| 2026-04-28 23:57 | 46.03947 | -108.81688 | 32115 ft | 414 kts | 327° |
| 2026-04-28 23:57 | 46.08926 | -108.85873 | 32124 ft | 414 kts | 327° |
| 2026-04-28 23:58 | 46.13907 | -108.90061 | 32122 ft | 415 kts | 327° |
| 2026-04-28 23:58 | 46.18886 | -108.94263 | 32124 ft | 414 kts | 327° |
| 2026-04-28 23:59 | 46.23054 | -108.97784 | 32125 ft | 415 kts | 327° |
| 2026-04-28 23:59 | 46.28035 | -109.01996 | 32127 ft | 415 kts | 327° |
| 2026-04-29 00:00 | 46.33012 | -109.06208 | 32127 ft | 414 kts | 327° |
| 2026-04-29 00:00 | 46.37988 | -109.10432 | 32125 ft | 414 kts | 327° |
| 2026-04-29 00:01 | 46.42937 | -109.14651 | 32124 ft | 414 kts | 327° |
| 2026-04-29 00:01 | 46.47896 | -109.18888 | 32120 ft | 413 kts | 327° |
| 2026-04-29 00:02 | 46.52845 | -109.23118 | 32119 ft | 413 kts | 327° |
| 2026-04-29 00:02 | 46.57796 | -109.27361 | 32122 ft | 413 kts | 327° |
| 2026-04-29 00:03 | 46.62741 | -109.31604 | 32118 ft | 413 kts | 327° |
| 2026-04-29 00:03 | 46.67688 | -109.35847 | 32119 ft | 413 kts | 327° |
| 2026-04-29 00:04 | 46.72630 | -109.40097 | 32114 ft | 412 kts | 327° |
| 2026-04-29 00:04 | 46.77561 | -109.44364 | 32106 ft | 412 kts | 327° |
| 2026-04-29 00:05 | 46.82495 | -109.48640 | 32099 ft | 412 kts | 327° |
| 2026-04-29 00:05 | 46.87429 | -109.52921 | 32098 ft | 412 kts | 327° |
| 2026-04-29 00:06 | 46.92356 | -109.57199 | 32095 ft | 412 kts | 328° |
| 2026-04-29 00:06 | 46.97287 | -109.61500 | 32090 ft | 412 kts | 327° |
| 2026-04-29 00:07 | 47.02207 | -109.65811 | 32091 ft | 412 kts | 327° |
| 2026-04-29 00:07 | 47.07131 | -109.70122 | 32094 ft | 412 kts | 328° |
| 2026-04-29 00:08 | 47.12053 | -109.74429 | 32093 ft | 412 kts | 328° |
| 2026-04-29 00:08 | 47.16971 | -109.78748 | 32095 ft | 411 kts | 328° |
| 2026-04-29 00:09 | 47.21877 | -109.83075 | 32098 ft | 411 kts | 328° |
| 2026-04-29 00:09 | 47.26781 | -109.87408 | 32102 ft | 411 kts | 328° |
| 2026-04-29 00:10 | 47.31679 | -109.91743 | 32106 ft | 411 kts | 328° |
| 2026-04-29 00:10 | 47.36581 | -109.96084 | 32109 ft | 411 kts | 328° |
| 2026-04-29 00:11 | 47.41475 | -110.00424 | 32112 ft | 410 kts | 328° |
| 2026-04-29 00:12 | 47.48769 | -110.06941 | 32107 ft | 410 kts | 328° |
| 2026-04-29 00:12 | 47.53643 | -110.11305 | 32108 ft | 410 kts | 328° |
| 2026-04-29 00:13 | 47.58521 | -110.15672 | 32104 ft | 410 kts | 328° |
| 2026-04-29 00:13 | 47.63397 | -110.20048 | 32105 ft | 410 kts | 328° |
| 2026-04-29 00:14 | 47.68268 | -110.24431 | 32101 ft | 409 kts | 328° |
| 2026-04-29 00:14 | 47.73129 | -110.28826 | 32099 ft | 409 kts | 328° |
| 2026-04-29 00:15 | 47.77986 | -110.33204 | 32098 ft | 408 kts | 328° |
| 2026-04-29 00:15 | 47.82845 | -110.37594 | 32097 ft | 408 kts | 328° |
| 2026-04-29 00:16 | 47.87689 | -110.41990 | 32094 ft | 408 kts | 328° |
| 2026-04-29 00:16 | 47.92528 | -110.46403 | 32098 ft | 408 kts | 328° |
| 2026-04-29 00:17 | 47.97365 | -110.50816 | 32090 ft | 407 kts | 328° |
| 2026-04-29 00:17 | 48.02197 | -110.55236 | 32092 ft | 407 kts | 328° |
| 2026-04-29 00:18 | 48.07027 | -110.59658 | 32088 ft | 407 kts | 328° |
| 2026-04-29 00:18 | 48.11842 | -110.64075 | 32087 ft | 406 kts | 328° |
| 2026-04-29 00:19 | 48.16661 | -110.68503 | 32089 ft | 406 kts | 328° |
| 2026-04-29 00:19 | 48.21474 | -110.72934 | 32081 ft | 406 kts | 328° |
| 2026-04-29 00:20 | 48.26278 | -110.77385 | 32085 ft | 406 kts | 328° |
| 2026-04-29 00:20 | 48.31078 | -110.81835 | 32086 ft | 406 kts | 328° |
| 2026-04-29 00:21 | 48.35875 | -110.86289 | 32085 ft | 405 kts | 328° |
| 2026-04-29 00:21 | 48.40679 | -110.90747 | 32088 ft | 405 kts | 328° |
| 2026-04-29 00:22 | 48.45468 | -110.95204 | 32092 ft | 405 kts | 328° |
| 2026-04-29 00:22 | 48.50255 | -110.99681 | 32093 ft | 404 kts | 328° |
| 2026-04-29 00:23 | 48.55033 | -111.04152 | 32099 ft | 404 kts | 328° |
| 2026-04-29 00:23 | 48.59810 | -111.08632 | 32098 ft | 404 kts | 328° |
| 2026-04-29 00:24 | 48.64581 | -111.13126 | 32105 ft | 404 kts | 328° |
| 2026-04-29 00:24 | 48.69342 | -111.17619 | 32103 ft | 403 kts | 328° |
| 2026-04-29 00:25 | 48.74102 | -111.22126 | 32107 ft | 403 kts | 328° |
| 2026-04-29 00:25 | 48.78863 | -111.26636 | 32108 ft | 403 kts | 328° |
| 2026-04-29 00:26 | 48.83621 | -111.31141 | 32110 ft | 403 kts | 328° |
| 2026-04-29 00:26 | 48.88370 | -111.35651 | 32111 ft | 403 kts | 328° |
| 2026-04-29 00:27 | 48.93118 | -111.40176 | 32114 ft | 403 kts | 328° |
| 2026-04-29 00:27 | 48.97860 | -111.44713 | 32114 ft | 403 kts | 328° |
| 2026-04-29 00:28 | 49.02602 | -111.49265 | 32117 ft | 403 kts | 328° |
| 2026-04-29 00:28 | 49.07348 | -111.53817 | 32121 ft | 403 kts | 328° |
| 2026-04-29 00:29 | 49.12085 | -111.58372 | 32125 ft | 403 kts | 328° |
| 2026-04-29 00:29 | 49.16820 | -111.62945 | 32120 ft | 402 kts | 328° |
| 2026-04-29 00:30 | 49.21540 | -111.67511 | 32119 ft | 401 kts | 328° |
| 2026-04-29 00:30 | 49.26262 | -111.72071 | 32120 ft | 401 kts | 328° |
| 2026-04-29 00:31 | 49.30978 | -111.76646 | 32119 ft | 401 kts | 328° |
| 2026-04-29 00:31 | 49.35686 | -111.81227 | 32117 ft | 401 kts | 328° |
| 2026-04-29 00:32 | 49.40388 | -111.85813 | 32119 ft | 400 kts | 328° |
| 2026-04-29 00:32 | 49.45081 | -111.90405 | 32115 ft | 400 kts | 328° |
| 2026-04-29 00:33 | 49.49768 | -111.94995 | 32120 ft | 400 kts | 328° |
| 2026-04-29 00:33 | 49.54452 | -111.99608 | 32118 ft | 399 kts | 327° |
| 2026-04-29 00:34 | 49.57577 | -112.02697 | 32121 ft | 399 kts | 327° |
| 2026-04-29 00:34 | 49.62809 | -112.07866 | 32117 ft | 399 kts | 327° |
| 2026-04-29 00:35 | 49.68274 | -112.13256 | 32117 ft | 399 kts | 328° |
| 2026-04-29 00:35 | 49.72945 | -112.17874 | 32119 ft | 398 kts | 327° |
| 2026-04-29 00:36 | 49.77572 | -112.22462 | 32117 ft | 398 kts | 327° |
| 2026-04-29 00:36 | 49.82267 | -112.27135 | 32117 ft | 398 kts | 327° |
| 2026-04-29 00:37 | 49.86130 | -112.30999 | 32116 ft | 398 kts | 327° |
| 2026-04-29 00:37 | 49.91532 | -112.36411 | 32117 ft | 398 kts | 327° |
| 2026-04-29 00:37 | 49.93098 | -112.37981 | 32007 ft | 396 kts | 327° |
| 2026-04-29 00:38 | 49.95410 | -112.40301 | 31308 ft | 397 kts | 327° |
| 2026-04-29 00:38 | 49.97732 | -112.42636 | 30571 ft | 398 kts | 327° |
| 2026-04-29 00:38 | 50.00059 | -112.44976 | 29857 ft | 398 kts | 327° |
| 2026-04-29 00:38 | 50.02378 | -112.47309 | 29240 ft | 395 kts | 327° |
| 2026-04-29 00:39 | 50.04672 | -112.49622 | 28615 ft | 392 kts | 327° |
| 2026-04-29 00:39 | 50.06952 | -112.51923 | 27997 ft | 389 kts | 327° |
| 2026-04-29 00:39 | 50.09220 | -112.54208 | 27381 ft | 387 kts | 327° |
| 2026-04-29 00:39 | 50.11469 | -112.56482 | 26787 ft | 385 kts | 327° |
| 2026-04-29 00:40 | 50.13708 | -112.58753 | 26205 ft | 382 kts | 327° |
| 2026-04-29 00:40 | 50.15929 | -112.61013 | 25625 ft | 381 kts | 327° |
| 2026-04-29 00:40 | 50.18140 | -112.63264 | 25058 ft | 379 kts | 327° |
| 2026-04-29 00:40 | 50.20341 | -112.65498 | 24488 ft | 377 kts | 327° |
| 2026-04-29 00:41 | 50.22536 | -112.67729 | 23930 ft | 375 kts | 327° |
| 2026-04-29 00:41 | 50.24720 | -112.69950 | 23335 ft | 374 kts | 327° |
| 2026-04-29 00:41 | 50.26894 | -112.72164 | 22735 ft | 371 kts | 327° |
| 2026-04-29 00:41 | 50.29018 | -112.74330 | 22163 ft | 368 kts | 327° |
| 2026-04-29 00:42 | 50.31181 | -112.76541 | 21605 ft | 365 kts | 326° |
| 2026-04-29 00:42 | 50.33163 | -112.78979 | 21068 ft | 362 kts | 317° |
| 2026-04-29 00:42 | 50.34915 | -112.81715 | 20542 ft | 359 kts | 315° |
| 2026-04-29 00:42 | 50.36670 | -112.84468 | 20030 ft | 356 kts | 316° |
| 2026-04-29 00:43 | 50.38418 | -112.87204 | 19525 ft | 354 kts | 316° |
| 2026-04-29 00:43 | 50.40154 | -112.89921 | 19034 ft | 351 kts | 316° |
| 2026-04-29 00:43 | 50.41899 | -112.92657 | 18550 ft | 349 kts | 316° |
| 2026-04-29 00:43 | 50.43605 | -112.95352 | 18033 ft | 347 kts | 315° |
| 2026-04-29 00:44 | 50.45267 | -112.98005 | 17549 ft | 344 kts | 315° |
| 2026-04-29 00:44 | 50.46926 | -113.00673 | 17082 ft | 340 kts | 315° |
| 2026-04-29 00:44 | 50.48570 | -113.03324 | 16615 ft | 337 kts | 315° |
| 2026-04-29 00:44 | 50.50218 | -113.05979 | 16162 ft | 333 kts | 315° |
| 2026-04-29 00:45 | 50.51830 | -113.08573 | 15719 ft | 330 kts | 315° |
| 2026-04-29 00:45 | 50.53434 | -113.11123 | 15276 ft | 327 kts | 315° |
| 2026-04-29 00:45 | 50.55031 | -113.13644 | 14844 ft | 324 kts | 315° |
| 2026-04-29 00:45 | 50.56613 | -113.16144 | 14419 ft | 321 kts | 315° |
| 2026-04-29 00:46 | 50.58179 | -113.18622 | 13993 ft | 318 kts | 315° |
| 2026-04-29 00:46 | 50.59707 | -113.21042 | 13537 ft | 315 kts | 315° |
| 2026-04-29 00:46 | 50.61248 | -113.23488 | 13024 ft | 314 kts | 315° |
| 2026-04-29 00:46 | 50.62778 | -113.25939 | 12509 ft | 314 kts | 314° |
| 2026-04-29 00:47 | 50.64291 | -113.28382 | 12237 ft | 306 kts | 314° |
| 2026-04-29 00:47 | 50.65743 | -113.30734 | 12112 ft | 292 kts | 314° |
| 2026-04-29 00:47 | 50.67119 | -113.32970 | 11928 ft | 279 kts | 314° |
| 2026-04-29 00:47 | 50.68457 | -113.35147 | 11665 ft | 274 kts | 313° |
| 2026-04-29 00:48 | 50.69789 | -113.37288 | 11303 ft | 273 kts | 317° |
| 2026-04-29 00:48 | 50.71230 | -113.39240 | 10908 ft | 273 kts | 318° |
| 2026-04-29 00:48 | 50.72671 | -113.41191 | 10527 ft | 273 kts | 318° |
| 2026-04-29 00:48 | 50.74106 | -113.43145 | 10147 ft | 272 kts | 317° |
| 2026-04-29 00:49 | 50.75538 | -113.45099 | 9724 ft | 272 kts | 318° |
| 2026-04-29 00:49 | 50.76969 | -113.47052 | 9315 ft | 272 kts | 318° |
| 2026-04-29 00:49 | 50.78397 | -113.48999 | 8941 ft | 270 kts | 318° |
| 2026-04-29 00:49 | 50.79817 | -113.50935 | 8579 ft | 269 kts | 319° |
| 2026-04-29 00:50 | 50.81232 | -113.52865 | 8184 ft | 268 kts | 319° |
| 2026-04-29 00:50 | 50.82515 | -113.54615 | 7823 ft | 267 kts | 319° |
| 2026-04-29 00:50 | 50.83920 | -113.56536 | 7438 ft | 267 kts | 320° |
| 2026-04-29 00:50 | 50.85319 | -113.58451 | 7077 ft | 266 kts | 320° |
| 2026-04-29 00:51 | 50.86716 | -113.60366 | 6674 ft | 265 kts | 320° |
| 2026-04-29 00:51 | 50.88113 | -113.62279 | 6306 ft | 265 kts | 321° |
| 2026-04-29 00:51 | 50.89503 | -113.64179 | 6096 ft | 264 kts | 321° |
| 2026-04-29 00:51 | 50.90894 | -113.66100 | 6086 ft | 266 kts | 319° |
| 2026-04-29 00:52 | 50.92037 | -113.68405 | 6073 ft | 268 kts | 301° |
| 2026-04-29 00:52 | 50.92697 | -113.71178 | 6076 ft | 271 kts | 283° |
| 2026-04-29 00:52 | 50.92829 | -113.74087 | 6063 ft | 260 kts | 271° |
| 2026-04-29 00:52 | 50.92809 | -113.76874 | 6061 ft | 245 kts | 272° |
| 2026-04-29 00:53 | 50.92789 | -113.79514 | 6058 ft | 237 kts | 271° |
| 2026-04-29 00:53 | 50.92758 | -113.82119 | 6058 ft | 236 kts | 271° |
| 2026-04-29 00:53 | 50.92722 | -113.84714 | 5942 ft | 235 kts | 271° |
| 2026-04-29 00:53 | 50.92680 | -113.87256 | 5770 ft | 226 kts | 271° |
| 2026-04-29 00:54 | 50.92639 | -113.89687 | 5649 ft | 218 kts | 271° |
| 2026-04-29 00:54 | 50.92599 | -113.92067 | 5550 ft | 214 kts | 271° |
| 2026-04-29 00:54 | 50.92558 | -113.94396 | 5551 ft | 214 kts | 271° |
| 2026-04-29 00:54 | 50.92582 | -113.96741 | 5533 ft | 212 kts | 284° |
| 2026-04-29 00:55 | 50.93299 | -113.98659 | 5551 ft | 201 kts | 326° |
| 2026-04-29 00:55 | 50.94531 | -113.99149 | 5555 ft | 173 kts | 5° |
| 2026-04-29 00:55 | 50.95703 | -113.99015 | 5532 ft | 161 kts | 360° |
| 2026-04-29 00:55 | 50.96778 | -113.99037 | 5567 ft | 151 kts | 359° |
| 2026-04-29 00:56 | 50.97815 | -113.99047 | 5536 ft | 147 kts | 359° |
| 2026-04-29 00:56 | 50.98821 | -113.99050 | 5525 ft | 146 kts | 359° |
| 2026-04-29 00:56 | 50.99846 | -113.99051 | 5516 ft | 146 kts | 359° |
| 2026-04-29 00:56 | 51.00847 | -113.99051 | 5495 ft | 146 kts | 0° |
| 2026-04-29 00:57 | 51.01856 | -113.99049 | 5395 ft | 145 kts | 0° |
| 2026-04-29 00:57 | 51.02867 | -113.99048 | 5233 ft | 145 kts | 1° |
| 2026-04-29 00:57 | 51.03869 | -113.99047 | 5065 ft | 144 kts | 1° |
| 2026-04-29 00:57 | 51.04868 | -113.99047 | 4885 ft | 143 kts | 0° |
| 2026-04-29 00:58 | 51.05863 | -113.99046 | 4657 ft | 144 kts | 1° |
| 2026-04-29 00:58 | 51.06857 | -113.99038 | 4447 ft | 142 kts | 1° |
| 2026-04-29 00:58 | 51.07850 | -113.99033 | 4208 ft | 142 kts | 2° |
| 2026-04-29 00:58 | 51.08831 | -113.99030 | 4080 ft | 141 kts | 1° |
| 2026-04-29 00:59 | 51.09818 | -113.99032 | 3837 ft | 140 kts | 1° |
| 2026-04-29 00:59 | 51.10795 | -113.99046 | 3635 ft | 140 kts | 3° |
| 2026-04-29 00:59 | 51.11755 | -113.99026 | 3605 ft | 136 kts | 357° |
| 2026-04-29 00:59 | 51.12750 | -113.99080 | 4150 ft | 150 kts | 0° |
| 2026-04-29 01:00 | 51.13872 | -113.99118 | 4864 ft | 172 kts | 0° |
| 2026-04-29 01:00 | 51.15127 | -113.99125 | 5600 ft | 179 kts | 0° |
| 2026-04-29 01:00 | 51.16408 | -113.99125 | 5950 ft | 193 kts | 0° |
| 2026-04-29 01:00 | 51.17821 | -113.99114 | 6012 ft | 217 kts | 2° |
| 2026-04-29 01:01 | 51.19287 | -113.98440 | 5998 ft | 225 kts | 32° |
| 2026-04-29 01:01 | 51.20296 | -113.96558 | 6004 ft | 229 kts | 66° |
| 2026-04-29 01:01 | 51.20581 | -113.94057 | 6012 ft | 231 kts | 85° |
| 2026-04-29 01:01 | 51.20603 | -113.91490 | 6023 ft | 231 kts | 88° |
| 2026-04-29 01:02 | 51.20597 | -113.88931 | 6021 ft | 231 kts | 88° |
| 2026-04-29 01:02 | 51.20586 | -113.86366 | 6018 ft | 232 kts | 88° |
| 2026-04-29 01:02 | 51.20572 | -113.83796 | 6034 ft | 232 kts | 88° |
| 2026-04-29 01:02 | 51.20562 | -113.81212 | 6037 ft | 233 kts | 88° |
| 2026-04-29 01:03 | 51.20548 | -113.78629 | 6036 ft | 233 kts | 88° |
| 2026-04-29 01:03 | 51.20529 | -113.76045 | 6042 ft | 234 kts | 88° |
| 2026-04-29 01:03 | 51.20492 | -113.73474 | 6047 ft | 233 kts | 88° |
| 2026-04-29 01:03 | 51.20459 | -113.70868 | 6057 ft | 233 kts | 88° |
| 2026-04-29 01:04 | 51.20426 | -113.68284 | 6055 ft | 233 kts | 88° |
| 2026-04-29 01:04 | 51.20266 | -113.65705 | 6055 ft | 237 kts | 105° |
| 2026-04-29 01:04 | 51.19359 | -113.63515 | 6072 ft | 243 kts | 138° |
| 2026-04-29 01:04 | 51.17846 | -113.62370 | 6071 ft | 245 kts | 169° |
| 2026-04-29 01:05 | 51.16146 | -113.62120 | 6079 ft | 246 kts | 177° |
| 2026-04-29 01:05 | 51.14440 | -113.62014 | 6066 ft | 245 kts | 178° |
| 2026-04-29 01:05 | 51.12737 | -113.61926 | 6066 ft | 245 kts | 178° |
| 2026-04-29 01:05 | 51.11031 | -113.61846 | 6068 ft | 246 kts | 178° |
| 2026-04-29 01:06 | 51.09321 | -113.61772 | 6070 ft | 245 kts | 178° |
| 2026-04-29 01:06 | 51.07616 | -113.61700 | 6068 ft | 245 kts | 178° |
| 2026-04-29 01:06 | 51.05912 | -113.61624 | 6071 ft | 245 kts | 178° |
| 2026-04-29 01:06 | 51.04207 | -113.61551 | 6070 ft | 245 kts | 178° |
| 2026-04-29 01:07 | 51.02497 | -113.61481 | 6070 ft | 245 kts | 178° |
| 2026-04-29 01:07 | 51.00790 | -113.61417 | 6079 ft | 245 kts | 178° |
| 2026-04-29 01:07 | 50.99089 | -113.61357 | 6072 ft | 244 kts | 178° |
| 2026-04-29 01:07 | 50.97391 | -113.61299 | 6079 ft | 244 kts | 178° |
| 2026-04-29 01:08 | 50.95697 | -113.61379 | 6066 ft | 244 kts | 192° |
| 2026-04-29 01:08 | 50.94212 | -113.62591 | 6075 ft | 242 kts | 225° |
| 2026-04-29 01:08 | 50.93346 | -113.64830 | 6079 ft | 239 kts | 257° |
| 2026-04-29 01:08 | 50.93103 | -113.67414 | 6084 ft | 237 kts | 267° |
| 2026-04-29 01:09 | 50.92975 | -113.70016 | 6068 ft | 237 kts | 268° |
| 2026-04-29 01:09 | 50.92861 | -113.72609 | 6065 ft | 236 kts | 268° |
| 2026-04-29 01:09 | 50.92745 | -113.75179 | 6058 ft | 236 kts | 268° |
| 2026-04-29 01:09 | 50.92629 | -113.77769 | 6056 ft | 236 kts | 268° |
| 2026-04-29 01:10 | 50.92513 | -113.80324 | 6053 ft | 223 kts | 268° |
| 2026-04-29 01:10 | 50.92399 | -113.82709 | 6051 ft | 218 kts | 268° |
| 2026-04-29 01:10 | 50.92281 | -113.85120 | 6053 ft | 216 kts | 269° |
| 2026-04-29 01:10 | 50.92165 | -113.87459 | 6048 ft | 215 kts | 268° |
| 2026-04-29 01:11 | 50.92048 | -113.89849 | 6047 ft | 214 kts | 268° |
| 2026-04-29 01:11 | 50.91930 | -113.92198 | 6045 ft | 214 kts | 268° |
| 2026-04-29 01:11 | 50.92005 | -113.94523 | 6038 ft | 210 kts | 290° |
| 2026-04-29 01:11 | 50.92659 | -113.96550 | 6039 ft | 207 kts | 310° |
| 2026-04-29 01:12 | 50.93705 | -113.98075 | 6052 ft | 204 kts | 330° |
| 2026-04-29 01:12 | 50.94988 | -113.98913 | 6058 ft | 191 kts | 349° |
| 2026-04-29 01:12 | 50.96217 | -113.99057 | 6047 ft | 167 kts | 359° |
| 2026-04-29 01:12 | 50.97317 | -113.99055 | 6055 ft | 152 kts | 360° |
| 2026-04-29 01:13 | 50.98360 | -113.99054 | 6025 ft | 147 kts | 359° |
| 2026-04-29 01:13 | 50.99378 | -113.99053 | 5915 ft | 145 kts | 0° |
| 2026-04-29 01:13 | 51.00381 | -113.99052 | 5746 ft | 144 kts | 360° |
| 2026-04-29 01:13 | 51.01383 | -113.99051 | 5553 ft | 144 kts | 0° |
| 2026-04-29 01:14 | 51.02366 | -113.99049 | 5375 ft | 143 kts | 1° |
| 2026-04-29 01:14 | 51.03360 | -113.99047 | 5174 ft | 143 kts | 1° |
| 2026-04-29 01:14 | 51.04352 | -113.99046 | 4982 ft | 142 kts | 1° |
| 2026-04-29 01:14 | 51.05340 | -113.99045 | 4780 ft | 141 kts | 1° |
| 2026-04-29 01:15 | 51.06338 | -113.99044 | 4570 ft | 142 kts | 2° |
| 2026-04-29 01:15 | 51.07322 | -113.99040 | 4339 ft | 141 kts | 1° |
| 2026-04-29 01:15 | 51.08304 | -113.99032 | 4133 ft | 140 kts | 2° |
| 2026-04-29 01:15 | 51.09265 | -113.99032 | 3910 ft | 140 kts | 1° |
| 2026-04-29 01:16 | 51.10236 | -113.99036 | 3766 ft | 140 kts | 2° |
| 2026-04-29 01:16 | 51.11207 | -113.99035 | 3580 ft | 139 kts | 1° |
| 2026-04-29 01:16 | 51.12074 | -113.99024 | 3558 ft | 99 kts | 0° |
| 2026-04-29 01:16 | 51.12584 | -113.99032 | 3564 ft | 56 kts | 360° |
| 2026-04-29 01:17 | 51.12970 | -113.99087 | 3565 ft | 54 kts | 341° |
| 2026-04-29 01:17 | 51.13146 | -113.99246 | 3557 ft | 3 kts | 309° |
| 2026-04-29 01:17 | 51.13147 | -113.99247 | 3557 ft | 0 kts | 308° |
| 2026-04-29 01:17 | 51.13148 | -113.99249 | 3557 ft | 2 kts | 307° |
| 2026-04-29 01:18 | 51.13159 | -113.99348 | 3560 ft | 15 kts | 272° |
| 2026-04-29 01:18 | 51.13161 | -113.99666 | 3560 ft | 13 kts | 271° |
| 2026-04-29 01:18 | 51.13161 | -113.99803 | 3560 ft | 11 kts | 270° |
| 2026-04-29 01:19 | 51.13136 | -113.99856 | 3560 ft | 5 kts | 182° |
| 2026-04-29 01:19 | 51.13106 | -113.99847 | 3560 ft | 4 kts | 167° |
| 2026-04-29 01:19 | 51.13084 | -113.99839 | 3560 ft | 3 kts | 167° |
| 2026-04-29 01:19 | 51.13067 | -113.99833 | 3560 ft | 2 kts | 168° |
| 2026-04-29 01:20 | 51.13061 | -113.99831 | 3560 ft | 0 kts | 168° |
| 2026-04-29 01:20 | 51.13059 | -113.99830 | 3560 ft | 0 kts | 168° |